sim
Sign-in with your pilot id or email,
or register
Callsign
Passwort

Schedule Details

Flight Number: EWG2682 (1)
Departure: Stuttgart Airport (EDDS) at 15:00
Arrival: Thessaloniki International Airport (LGTS) at 17:25
Route: Eurowings Passenger Schedule. Enter filed route here before submitting Pirep.

Weather Information
Getting current METAR information for EDDS 211120Z 06005KT 040V100 9999 FEW029 12/05 Q1028 NOSIG
Getting current METAR information for LGTS 211120Z 33019KT CAVOK 16/M01 Q1023 NOSIG

Schedule Frequency

Route Map